createdAt,value
2019-05-23T00:02:45.166Z,11.70
2019-05-23T00:05:34.316Z,11.27
2019-05-23T00:08:23.865Z,11.90
2019-05-23T00:11:04.377Z,11.07
2019-05-23T00:13:54.512Z,11.57
2019-05-23T00:16:24.911Z,10.87
2019-05-23T00:18:56.280Z,10.70
2019-05-23T00:21:27.386Z,11.80
2019-05-23T00:23:58.635Z,10.63
2019-05-23T00:26:29.958Z,10.43
2019-05-23T00:29:09.920Z,10.90
2019-05-23T00:31:52.582Z,10.63
2019-05-23T00:34:23.917Z,10.47
2019-05-23T00:36:54.507Z,11.03
2019-05-23T00:39:24.716Z,10.13
2019-05-23T00:41:54.333Z,10.93
2019-05-23T00:44:24.592Z,11.33
2019-05-23T00:46:54.584Z,11.30
2019-05-23T00:49:25.079Z,12.10
2019-05-23T00:51:55.275Z,11.67
2019-05-23T00:54:25.921Z,12.13
2019-05-23T00:56:58.668Z,10.90
2019-05-23T00:59:30.423Z,11.33
2019-05-23T01:02:00.661Z,11.73
2019-05-23T01:04:31.657Z,11.20
2019-05-23T01:07:01.935Z,11.47
2019-05-23T01:09:32.407Z,10.93
2019-05-23T01:12:02.213Z,11.97
2019-05-23T01:14:31.830Z,11.30
2019-05-23T01:17:01.937Z,11.50
2019-05-23T01:19:32.117Z,11.23
2019-05-23T01:22:03.877Z,11.43
2019-05-23T01:24:40.912Z,11.07
2019-05-23T01:27:10.996Z,11.37
2019-05-23T01:29:43.002Z,11.17
2019-05-23T01:32:20.492Z,10.80
2019-05-23T01:34:51.054Z,11.63
2019-05-23T01:37:21.724Z,11.00
2019-05-23T01:39:51.328Z,9.90
2019-05-23T01:42:24.177Z,9.80
2019-05-23T01:44:55.106Z,9.67
2019-05-23T01:47:24.533Z,9.27
2019-05-23T01:49:55.346Z,9.20
2019-05-23T01:52:26.490Z,9.40
2019-05-23T01:54:56.116Z,8.90
2019-05-23T01:57:26.367Z,9.37
2019-05-23T02:00:08.871Z,8.90
2019-05-23T02:02:30.546Z,9.43
2019-05-23T02:05:01.018Z,9.23
2019-05-23T02:07:32.165Z,9.90
2019-05-23T02:10:02.003Z,10.07
2019-05-23T02:12:33.556Z,9.53
2019-05-23T02:15:07.471Z,9.30
2019-05-23T02:17:39.827Z,9.67
2019-05-23T02:20:14.110Z,10.57
2019-05-23T02:22:44.163Z,9.40
2019-05-23T02:25:17.573Z,10.00
2019-05-23T02:27:47.548Z,9.70
2019-05-23T02:30:34.116Z,9.47
2019-05-23T02:32:51.760Z,9.83
2019-05-23T02:35:24.134Z,10.23
2019-05-23T02:38:11.729Z,10.13
2019-05-23T02:40:43.756Z,10.23
2019-05-23T02:43:23.024Z,10.70
2019-05-23T02:46:04.540Z,10.73
2019-05-23T02:48:38.321Z,10.80
2019-05-23T02:51:23.623Z,11.17
2019-05-23T02:53:55.818Z,11.40
2019-05-23T02:56:27.309Z,10.47
2019-05-23T02:59:07.403Z,11.67
2019-05-23T03:04:38.524Z,11.53
2019-05-23T03:07:09.644Z,11.93
2019-05-23T03:09:40.001Z,11.77
2019-05-23T03:12:11.864Z,11.83
2019-05-23T03:14:42.780Z,12.53
2019-05-23T03:17:16.725Z,12.03
2019-05-23T03:19:53.762Z,11.77
2019-05-23T03:22:36.777Z,12.03
2019-05-23T03:25:31.439Z,12.03
2019-05-23T03:28:03.253Z,12.17
2019-05-23T03:30:34.467Z,11.97
2019-05-23T03:33:05.705Z,11.90
2019-05-23T03:35:36.890Z,12.30
2019-05-23T03:38:06.659Z,12.10
2019-05-23T03:40:36.436Z,13.10
2019-05-23T03:43:08.588Z,11.93
2019-05-23T03:45:44.313Z,12.33
2019-05-23T03:48:14.838Z,12.57
2019-05-23T03:50:44.447Z,13.07
2019-05-23T03:53:15.034Z,12.30
2019-05-23T03:55:48.133Z,14.20
2019-05-23T03:58:20.857Z,12.63
2019-05-23T04:00:52.805Z,12.50
2019-05-23T04:03:24.431Z,13.27
2019-05-23T04:05:55.640Z,14.07
2019-05-23T04:08:27.054Z,13.50
2019-05-23T04:10:58.187Z,13.80
2019-05-23T04:13:28.253Z,12.40
2019-05-23T04:15:57.896Z,13.13
2019-05-23T04:18:27.370Z,13.30
2019-05-23T04:20:56.887Z,12.47
2019-05-23T04:23:26.376Z,12.73
2019-05-23T04:25:55.812Z,13.23
2019-05-23T04:28:25.332Z,12.93
2019-05-23T04:30:54.856Z,12.27
2019-05-23T04:33:28.161Z,11.87
2019-05-23T04:35:57.759Z,12.33
2019-05-23T04:38:27.195Z,12.97
2019-05-23T04:40:57.029Z,13.80
2019-05-23T04:43:26.689Z,13.07
2019-05-23T04:45:56.200Z,13.03
2019-05-23T04:48:26.304Z,13.63
2019-05-23T04:51:00.170Z,13.47
2019-05-23T04:53:29.638Z,12.67
2019-05-23T04:56:00.686Z,13.33
2019-05-23T04:58:30.258Z,13.20
2019-05-23T05:01:00.603Z,12.57
2019-05-23T05:03:31.247Z,13.07
2019-05-23T05:06:00.909Z,13.63
2019-05-23T05:08:31.112Z,14.10
2019-05-23T05:11:00.717Z,14.80
2019-05-23T05:13:30.890Z,14.87
2019-05-23T05:16:00.563Z,14.77
2019-05-23T05:18:30.358Z,15.70
2019-05-23T05:21:00.159Z,14.60
2019-05-23T05:23:29.883Z,14.50
2019-05-23T05:25:59.758Z,14.33
2019-05-23T05:28:32.813Z,14.87
2019-05-23T05:31:02.623Z,14.70
2019-05-23T05:33:32.331Z,15.10
2019-05-23T05:36:02.166Z,15.10
2019-05-23T05:38:33.452Z,15.20
2019-05-23T05:41:04.806Z,15.70
2019-05-23T05:43:34.539Z,15.90
2019-05-23T05:46:05.351Z,15.90
2019-05-23T05:48:34.971Z,17.07
2019-05-23T05:51:05.293Z,15.83
2019-05-23T05:53:35.069Z,16.60
2019-05-23T05:56:05.035Z,16.93
2019-05-23T05:58:34.566Z,16.77
2019-05-23T06:01:06.220Z,15.90
2019-05-23T06:03:35.938Z,14.80
2019-05-23T06:06:07.127Z,14.87
2019-05-23T06:08:41.271Z,13.77
2019-05-23T06:11:13.031Z,13.50
2019-05-23T06:13:42.511Z,13.20
2019-05-23T06:16:12.250Z,12.63
2019-05-23T06:18:42.259Z,12.20
2019-05-23T06:21:13.747Z,12.57
2019-05-23T06:23:43.910Z,11.60
2019-05-23T06:26:15.079Z,11.87
2019-05-23T06:28:47.423Z,11.40
2019-05-23T06:31:18.857Z,9.43
2019-05-23T06:33:50.719Z,8.50
2019-05-23T06:36:21.022Z,8.50
2019-05-23T06:38:51.100Z,8.10
2019-05-23T06:41:21.532Z,8.93
2019-05-23T06:43:51.442Z,7.93
2019-05-23T06:46:20.945Z,8.40
2019-05-23T06:48:50.436Z,7.80
2019-05-23T06:51:19.995Z,7.27
2019-05-23T06:53:50.220Z,7.33
2019-05-23T06:56:21.511Z,7.77
2019-05-23T06:58:50.907Z,7.30
2019-05-23T07:01:20.850Z,7.37
2019-05-23T07:03:50.302Z,6.60
2019-05-23T07:06:22.252Z,7.17
2019-05-23T07:08:52.259Z,7.40
2019-05-23T07:11:23.703Z,6.60
2019-05-23T07:13:53.359Z,6.53
2019-05-23T07:16:23.046Z,6.23
2019-05-23T07:18:52.576Z,5.90
2019-05-23T07:21:22.651Z,7.10
2019-05-23T07:23:53.646Z,7.13
2019-05-23T07:26:27.270Z,7.50
2019-05-23T07:28:57.376Z,7.60
2019-05-23T07:31:26.886Z,8.20
2019-05-23T07:34:01.865Z,7.90
2019-05-23T07:36:31.624Z,7.53
2019-05-23T07:39:01.279Z,8.43
2019-05-23T07:41:30.903Z,8.17
2019-05-23T07:44:01.162Z,8.70
2019-05-23T07:46:32.542Z,9.43
2019-05-23T07:49:02.246Z,10.33
2019-05-23T07:51:31.923Z,10.57
2019-05-23T07:54:08.821Z,11.73
2019-05-23T07:56:42.934Z,12.43
2019-05-23T07:59:12.496Z,15.53
2019-05-23T08:01:44.930Z,12.37
2019-05-23T08:04:22.206Z,12.60
2019-05-23T08:06:49.128Z,11.53
2019-05-23T08:09:19.586Z,10.03
2019-05-23T08:11:49.447Z,9.13
2019-05-23T08:14:20.560Z,7.67
2019-05-23T08:16:52.136Z,8.35
2019-05-23T08:19:21.940Z,7.62
2019-05-23T08:21:53.273Z,7.58
2019-05-23T08:24:22.862Z,8.93
2019-05-23T08:26:53.616Z,11.90
2019-05-23T08:29:26.316Z,8.85
2019-05-23T08:31:55.122Z,8.30
2019-05-23T08:34:40.500Z,7.20
2019-05-23T08:36:57.513Z,7.10
2019-05-23T08:39:30.144Z,8.27
2019-05-23T08:42:03.585Z,7.90
2019-05-23T08:44:33.084Z,7.07
2019-05-23T08:47:02.617Z,7.00
2019-05-23T08:49:32.530Z,7.00
2019-05-23T08:52:02.113Z,7.47
2019-05-23T08:54:32.055Z,7.20
2019-05-23T08:57:01.869Z,7.70
2019-05-23T08:59:32.038Z,7.67
2019-05-23T09:02:03.759Z,7.70
2019-05-23T09:04:34.591Z,7.80
2019-05-23T09:07:05.788Z,7.87
2019-05-23T09:09:35.493Z,7.17
2019-05-23T09:12:07.104Z,7.60
2019-05-23T09:14:36.986Z,8.20
2019-05-23T09:17:08.771Z,8.03
2019-05-23T09:19:38.585Z,7.30
2019-05-23T09:22:08.199Z,8.23
2019-05-23T09:24:37.749Z,8.10
2019-05-23T09:27:07.508Z,8.97
2019-05-23T09:29:38.677Z,8.37
2019-05-23T09:32:08.490Z,7.37
2019-05-23T09:34:38.459Z,5.72
2019-05-23T09:37:09.530Z,5.03
2019-05-23T09:39:40.746Z,5.08
2019-05-23T09:42:12.182Z,5.20
2019-05-23T09:44:41.528Z,5.03
2019-05-23T09:47:11.063Z,5.17
2019-05-23T09:49:41.703Z,5.40
2019-05-23T09:52:12.874Z,6.37
2019-05-23T09:54:42.339Z,6.70
2019-05-23T09:57:12.972Z,5.72
2019-05-23T09:59:42.504Z,6.03
2019-05-23T10:02:13.173Z,6.50
2019-05-23T10:04:42.882Z,6.50
2019-05-23T10:07:13.164Z,7.58
2019-05-23T10:09:42.751Z,7.53
2019-05-23T10:12:12.204Z,7.15
2019-05-23T10:14:41.749Z,7.37
2019-05-23T10:17:12.759Z,7.17
2019-05-23T10:19:42.397Z,6.78
2019-05-23T10:22:12.147Z,6.33
2019-05-23T10:24:42.723Z,8.28
2019-05-23T10:27:13.736Z,9.90
2019-05-23T10:29:43.201Z,9.23
2019-05-23T10:32:14.616Z,9.13
2019-05-23T10:34:44.125Z,9.17
2019-05-23T10:37:15.704Z,11.33
2019-05-23T10:39:49.864Z,11.50
2019-05-23T10:42:19.568Z,12.40
2019-05-23T10:44:49.009Z,14.67
2019-05-23T10:47:19.043Z,16.80
2019-05-23T10:49:48.627Z,18.67
2019-05-23T10:52:18.716Z,19.90
2019-05-23T10:54:50.759Z,21.07
2019-05-23T10:57:22.460Z,21.07
2019-05-23T10:59:51.909Z,22.10
2019-05-23T11:02:26.870Z,23.83
2019-05-23T11:04:58.166Z,23.03
2019-05-23T11:07:28.365Z,23.13
2019-05-23T11:09:57.827Z,22.53
2019-05-23T11:12:27.703Z,23.20
2019-05-23T11:14:57.219Z,20.63
2019-05-23T11:17:26.826Z,20.67
2019-05-23T11:19:56.790Z,21.10
2019-05-23T11:22:26.319Z,19.33
2019-05-23T11:24:56.640Z,19.27
2019-05-23T11:27:27.632Z,20.03
2019-05-23T11:29:57.518Z,19.30
2019-05-23T11:32:27.094Z,19.30
2019-05-23T11:34:56.770Z,19.17
2019-05-23T11:37:26.823Z,13.97
2019-05-23T11:39:58.192Z,14.80
2019-05-23T11:42:29.681Z,10.83
2019-05-23T11:45:02.092Z,11.43
2019-05-23T11:47:33.993Z,11.80
2019-05-23T11:50:11.417Z,12.60
2019-05-23T11:52:42.092Z,11.83
2019-05-23T11:55:11.919Z,12.50
2019-05-23T11:57:58.039Z,13.57
2019-05-23T12:00:21.571Z,13.10
2019-05-23T12:02:53.548Z,14.20
2019-05-23T12:05:26.402Z,15.93
2019-05-23T12:07:56.991Z,15.87
2019-05-23T12:10:29.118Z,16.47
2019-05-23T12:13:02.279Z,16.10
2019-05-23T12:15:37.350Z,15.97
2019-05-23T12:18:11.112Z,15.73
2019-05-23T12:20:42.234Z,16.80
2019-05-23T12:23:12.974Z,16.43
2019-05-23T12:25:43.189Z,17.47
2019-05-23T12:28:13.317Z,17.50
2019-05-23T12:30:44.604Z,16.33
2019-05-23T12:33:14.448Z,16.83
2019-05-23T12:35:44.083Z,17.13
2019-05-23T12:38:14.876Z,19.37
2019-05-23T12:40:45.965Z,19.30
2019-05-23T12:43:15.540Z,21.10
2019-05-23T12:45:45.049Z,21.57
2019-05-23T12:48:18.915Z,22.00
2019-05-23T12:50:56.213Z,24.27
2019-05-23T12:53:26.551Z,25.30
2019-05-23T12:55:56.404Z,26.60
2019-05-23T12:58:27.695Z,26.90
2019-05-23T13:01:02.679Z,27.30
2019-05-23T13:03:33.317Z,27.80
2019-05-23T13:06:02.980Z,28.50
2019-05-23T13:08:36.264Z,28.90
2019-05-23T13:11:06.295Z,28.67
2019-05-23T13:13:35.857Z,28.83
2019-05-23T13:16:05.398Z,28.13
2019-05-23T13:18:35.010Z,27.93
2019-05-23T13:21:05.011Z,27.80
2019-05-23T13:23:34.760Z,27.93
2019-05-23T13:26:06.165Z,26.67
2019-05-23T13:28:35.781Z,24.90
2019-05-23T13:31:05.375Z,26.37
2019-05-23T13:33:35.110Z,26.80
2019-05-23T13:36:05.247Z,25.07
2019-05-23T13:38:34.756Z,25.23
2019-05-23T13:41:04.633Z,24.67
2019-05-23T13:43:35.154Z,23.50
2019-05-23T13:46:05.226Z,21.73
2019-05-23T13:48:35.218Z,21.27
2019-05-23T13:51:05.245Z,23.40
2019-05-23T13:53:34.841Z,21.20
2019-05-23T13:56:05.295Z,22.77
2019-05-23T13:58:35.066Z,22.67
2019-05-23T14:01:09.353Z,23.30
2019-05-23T14:03:36.276Z,24.00
2019-05-23T14:06:07.586Z,25.20
2019-05-23T14:08:37.081Z,28.13
2019-05-23T14:11:06.744Z,28.97
2019-05-23T14:13:36.260Z,29.03
2019-05-23T14:16:06.598Z,29.67
2019-05-23T14:18:37.709Z,29.43
2019-05-23T14:21:07.185Z,29.00
2019-05-23T14:23:38.292Z,30.33
2019-05-23T14:26:08.235Z,28.97
2019-05-23T14:28:37.811Z,29.63
2019-05-23T14:31:08.902Z,30.57
2019-05-23T14:33:48.809Z,30.00
2019-05-23T14:36:36.489Z,29.63
2019-05-23T14:39:09.224Z,29.20
2019-05-23T14:41:45.395Z,29.40
2019-05-23T14:44:12.840Z,30.10
2019-05-23T14:46:47.046Z,30.47
2019-05-23T14:49:18.214Z,30.83
2019-05-23T14:51:59.146Z,30.27
2019-05-23T14:54:38.987Z,30.07
2019-05-23T14:57:08.821Z,30.73
2019-05-23T14:59:38.836Z,31.07
2019-05-23T15:02:10.128Z,30.60
2019-05-23T15:04:39.725Z,30.67
2019-05-23T15:07:09.216Z,30.97
2019-05-23T15:09:38.860Z,29.60
2019-05-23T15:12:09.504Z,29.97
2019-05-23T15:14:39.070Z,28.73
2019-05-23T15:17:09.361Z,28.83
2019-05-23T15:19:44.683Z,29.03
2019-05-23T15:22:10.446Z,28.03
2019-05-23T15:24:39.930Z,28.93
2019-05-23T15:27:09.481Z,28.33
2019-05-23T15:29:39.009Z,28.13
2019-05-23T15:32:08.412Z,28.93
2019-05-23T15:34:37.940Z,27.40
2019-05-23T15:37:17.215Z,27.93
2019-05-23T15:39:51.787Z,27.47
2019-05-23T15:42:22.856Z,27.80
2019-05-23T15:44:54.118Z,29.27
2019-05-23T15:47:28.261Z,27.43
2019-05-23T15:49:59.400Z,28.30
2019-05-23T15:52:47.165Z,28.60
2019-05-23T15:55:27.817Z,27.70
2019-05-23T15:58:21.395Z,27.70
2019-05-23T16:00:54.213Z,28.87
2019-05-23T16:03:31.826Z,28.27
2019-05-23T16:06:03.384Z,28.47
2019-05-23T16:08:33.303Z,27.80
2019-05-23T16:11:03.047Z,29.10
2019-05-23T16:13:33.240Z,28.40
2019-05-23T16:16:03.296Z,28.93
2019-05-23T16:18:33.758Z,28.23
2019-05-23T16:21:04.558Z,28.70
2019-05-23T16:23:34.232Z,28.30
2019-05-23T16:26:03.828Z,28.67
2019-05-23T16:28:33.314Z,29.70
2019-05-23T16:31:03.397Z,29.60
2019-05-23T16:33:33.042Z,28.33
2019-05-23T16:36:02.846Z,29.10
2019-05-23T16:38:32.314Z,29.67
2019-05-23T16:41:03.404Z,28.53
2019-05-23T16:43:34.794Z,28.27
2019-05-23T16:46:04.341Z,27.63
2019-05-23T16:48:36.597Z,26.33
2019-05-23T16:51:06.517Z,27.98
2019-05-23T16:53:36.527Z,25.67
2019-05-23T16:56:08.277Z,25.17
2019-05-23T16:58:42.615Z,23.33
2019-05-23T17:01:23.581Z,23.27
2019-05-23T17:03:57.652Z,23.10
2019-05-23T17:06:35.217Z,24.03
2019-05-23T17:09:17.294Z,22.77
2019-05-23T17:11:54.301Z,23.97
2019-05-23T17:14:42.211Z,23.87
2019-05-23T17:17:16.298Z,24.03
2019-05-23T17:20:19.112Z,22.60
2019-05-23T17:22:48.102Z,23.40
2019-05-23T17:25:35.610Z,22.90
2019-05-23T17:28:07.147Z,22.50
2019-05-23T17:30:51.112Z,23.10
2019-05-23T17:33:23.807Z,23.03
2019-05-23T17:35:53.409Z,22.57
2019-05-23T17:38:24.636Z,22.87
2019-05-23T17:40:57.913Z,22.97
2019-05-23T17:43:27.311Z,23.40
2019-05-23T17:45:56.762Z,23.40
2019-05-23T17:48:26.434Z,23.30
2019-05-23T17:50:55.907Z,24.07
2019-05-23T17:53:25.436Z,23.30
2019-05-23T17:55:56.526Z,22.67
2019-05-23T17:58:26.483Z,23.57
2019-05-23T18:00:56.685Z,22.97
2019-05-23T18:03:26.740Z,23.57
2019-05-23T18:05:56.490Z,23.40
2019-05-23T18:08:28.541Z,24.10
2019-05-23T18:10:59.719Z,23.63
2019-05-23T18:13:31.399Z,24.97
2019-05-23T18:16:01.269Z,25.13
2019-05-23T18:18:33.283Z,25.47
2019-05-23T18:21:06.022Z,25.03
2019-05-23T18:23:35.548Z,25.07
2019-05-23T18:26:06.676Z,25.20
2019-05-23T18:28:37.897Z,25.20
2019-05-23T18:31:14.708Z,25.60
2019-05-23T18:33:49.346Z,24.73
2019-05-23T18:36:20.716Z,25.90
2019-05-23T18:38:57.004Z,24.70
2019-05-23T18:41:29.965Z,24.57
2019-05-23T18:44:21.343Z,26.00
2019-05-23T18:47:10.774Z,26.47
2019-05-23T18:49:41.838Z,25.30
2019-05-23T18:52:29.917Z,25.73
2019-05-23T18:55:01.082Z,25.03
2019-05-23T18:57:33.974Z,24.70
2019-05-23T19:00:05.308Z,25.10
2019-05-23T19:02:35.785Z,25.37
2019-05-23T19:05:09.581Z,25.70
2019-05-23T19:07:40.818Z,25.07
2019-05-23T19:10:11.479Z,25.43
2019-05-23T19:12:42.740Z,25.47
2019-05-23T19:15:30.915Z,25.50
2019-05-23T19:18:18.786Z,26.40
2019-05-23T19:21:08.312Z,26.67
2019-05-23T19:23:41.666Z,26.70
2019-05-23T19:26:14.070Z,25.80
2019-05-23T19:28:44.657Z,25.50
2019-05-23T19:31:33.750Z,25.53
2019-05-23T19:34:21.858Z,24.27
2019-05-23T19:36:51.447Z,25.10
2019-05-23T19:39:23.783Z,25.07
2019-05-23T19:41:53.664Z,25.10
2019-05-23T19:44:42.687Z,25.10
2019-05-23T19:47:15.573Z,24.57
2019-05-23T19:49:45.999Z,23.50
2019-05-23T19:52:33.528Z,23.90
2019-05-23T19:55:03.774Z,25.60
2019-05-23T19:58:09.699Z,24.97
2019-05-23T20:00:40.768Z,24.63
2019-05-23T20:03:28.039Z,25.93
2019-05-23T20:05:58.649Z,23.73
2019-05-23T20:08:47.151Z,21.93
2019-05-23T20:11:16.938Z,22.07
2019-05-23T20:13:46.955Z,21.93
2019-05-23T20:16:36.735Z,22.07
2019-05-23T20:19:06.331Z,23.27
2019-05-23T20:21:35.832Z,22.20
2019-05-23T20:24:05.338Z,22.20
2019-05-23T20:26:52.688Z,21.83
2019-05-23T20:29:22.201Z,22.37
2019-05-23T20:31:51.741Z,22.40
2019-05-23T20:34:39.193Z,23.47
2019-05-23T20:37:09.324Z,28.03
2019-05-23T20:39:57.053Z,23.73
2019-05-23T20:42:44.634Z,27.03
2019-05-23T20:45:50.278Z,30.43
2019-05-23T20:48:38.133Z,26.70
2019-05-23T20:51:09.364Z,28.43
2019-05-23T20:53:56.998Z,30.13
2019-05-23T20:56:27.494Z,37.47
2019-05-23T20:58:56.979Z,32.70
2019-05-23T21:01:31.158Z,29.27
2019-05-23T21:04:19.562Z,28.20
2019-05-23T21:06:49.045Z,28.60
2019-05-23T21:09:20.146Z,28.70
2019-05-23T21:11:49.647Z,28.50
2019-05-23T21:14:23.235Z,29.17
2019-05-23T21:16:52.761Z,23.47
2019-05-23T21:19:41.332Z,25.47
2019-05-23T21:22:11.793Z,21.90
2019-05-23T21:24:59.594Z,22.87
2019-05-23T21:27:49.808Z,22.03
2019-05-23T21:30:19.444Z,22.00
2019-05-23T21:32:48.943Z,24.20
2019-05-23T21:35:36.367Z,24.53
2019-05-23T21:38:05.983Z,24.27
2019-05-23T21:40:38.504Z,24.40
2019-05-23T21:43:08.225Z,24.57
2019-05-23T21:45:38.268Z,25.70
2019-05-23T21:48:09.026Z,29.03
2019-05-23T21:50:39.020Z,25.73
2019-05-23T21:53:09.320Z,25.10
2019-05-23T21:55:43.433Z,24.70
2019-05-23T21:58:31.158Z,25.50
2019-05-23T22:01:37.196Z,27.23
2019-05-23T22:04:11.261Z,28.30
2019-05-23T22:07:00.747Z,25.57
2019-05-23T22:09:32.230Z,25.63
2019-05-23T22:12:02.252Z,28.33
2019-05-23T22:14:49.598Z,27.33
2019-05-23T22:17:20.738Z,29.17
2019-05-23T22:19:51.488Z,25.97
2019-05-23T22:22:20.975Z,28.63
2019-05-23T22:24:51.959Z,28.93
2019-05-23T22:27:22.308Z,27.73
2019-05-23T22:29:52.186Z,23.63
2019-05-23T22:32:39.397Z,23.80
2019-05-23T22:35:12.018Z,22.70
2019-05-23T22:37:41.467Z,22.47
2019-05-23T22:40:12.831Z,27.23
2019-05-23T22:42:42.760Z,33.00
2019-05-23T22:45:12.925Z,30.23
2019-05-23T22:48:02.562Z,21.60
2019-05-23T22:50:32.003Z,24.93
2019-05-23T22:53:02.824Z,24.73
2019-05-23T22:55:32.350Z,22.20
2019-05-23T22:58:40.370Z,21.40
2019-05-23T23:01:10.073Z,20.10
2019-05-23T23:03:39.722Z,21.10
2019-05-23T23:06:27.225Z,25.67
2019-05-23T23:08:56.757Z,22.07
2019-05-23T23:11:28.602Z,22.40
2019-05-23T23:13:58.100Z,22.07
2019-05-23T23:16:46.399Z,21.53
2019-05-23T23:19:17.378Z,20.83
2019-05-23T23:21:49.130Z,21.97
2019-05-23T23:24:39.087Z,21.70
2019-05-23T23:27:08.882Z,21.13
2019-05-23T23:29:57.477Z,19.03
2019-05-23T23:32:28.537Z,17.63
2019-05-23T23:35:16.794Z,15.00
2019-05-23T23:37:51.096Z,15.87
2019-05-23T23:40:22.534Z,15.80
2019-05-23T23:42:52.000Z,14.53
2019-05-23T23:45:39.610Z,14.80
2019-05-23T23:48:27.286Z,23.23
2019-05-23T23:51:32.886Z,28.40
2019-05-23T23:54:20.531Z,18.40
2019-05-23T23:57:26.104Z,35.83
2019-05-23T23:59:56.008Z,37.20
